TimePST,TemperatureF,Dew PointF,Humidity,Sea Level PressureIn,VisibilityMPH,Wind Direction,Wind SpeedMPH,Gust SpeedMPH,PrecipitationIn,Events,Conditions,WindDirDegrees,DateUTC
12:10 AM,35.6,32.0,87,30.03,10.0,Calm,Calm,-,N/A,,Overcast,0,2013-11-04 08:10:00
12:29 AM,37.4,32.0,81,30.03,10.0,Calm,Calm,-,N/A,,Overcast,0,2013-11-04 08:29:00
12:56 AM,37.0,32.0,82,30.05,10.0,ENE,4.6,-,N/A,,Overcast,70,2013-11-04 08:56:00
1:56 AM,36.0,33.1,89,30.04,10.0,NNE,4.6,-,N/A,,Overcast,20,2013-11-04 09:56:00
2:56 AM,35.1,33.1,92,30.04,10.0,Calm,Calm,-,N/A,,Overcast,0,2013-11-04 10:56:00
3:15 AM,35.6,33.8,93,30.03,10.0,West,3.5,-,N/A,,Overcast,260,2013-11-04 11:15:00
3:24 AM,35.6,33.8,93,30.03,10.0,WSW,4.6,-,N/A,,Overcast,240,2013-11-04 11:24:00
3:39 AM,35.6,33.8,93,30.03,9.0,SSE,4.6,-,0.01,Rain,Light Rain,150,2013-11-04 11:39:00
3:48 AM,35.6,33.8,93,30.03,10.0,SE,3.5,-,0.01,,Overcast,140,2013-11-04 11:48:00
3:56 AM,34.0,32.0,92,30.06,10.0,SE,4.6,-,0.01,,Overcast,140,2013-11-04 11:56:00
4:56 AM,33.1,30.9,92,30.08,10.0,ENE,3.5,-,N/A,,Clear,60,2013-11-04 12:56:00
5:56 AM,33.1,30.9,92,30.09,8.0,North,3.5,-,N/A,,Mostly Cloudy,10,2013-11-04 13:56:00
6:25 AM,32.0,30.2,93,30.07,7.0,Calm,Calm,-,N/A,,Mostly Cloudy,0,2013-11-04 14:25:00
6:56 AM,32.0,30.9,96,30.12,7.0,SSE,3.5,-,N/A,,Mostly Cloudy,160,2013-11-04 14:56:00
7:56 AM,35.1,32.0,89,30.14,10.0,Calm,Calm,-,N/A,,Overcast,0,2013-11-04 15:56:00
8:33 AM,35.6,33.8,93,30.10,10.0,SE,4.6,-,N/A,,Mostly Cloudy,140,2013-11-04 16:33:00
8:56 AM,35.1,32.0,89,30.15,10.0,Calm,Calm,-,N/A,,Mostly Cloudy,0,2013-11-04 16:56:00
9:04 AM,35.6,32.0,87,30.11,10.0,Calm,Calm,-,N/A,,Mostly Cloudy,0,2013-11-04 17:04:00
9:56 AM,37.9,33.1,83,30.15,10.0,SE,3.5,-,N/A,,Overcast,130,2013-11-04 17:56:00
10:39 AM,39.2,33.8,81,30.12,10.0,Variable,4.6,-,N/A,,Mostly Cloudy,0,2013-11-04 18:39:00
10:51 AM,39.2,33.8,81,30.12,10.0,Calm,Calm,-,N/A,,Overcast,0,2013-11-04 18:51:00
10:56 AM,41.0,33.1,73,30.16,10.0,Calm,Calm,-,N/A,,Mostly Cloudy,0,2013-11-04 18:56:00
11:56 AM,44.1,28.9,55,30.15,10.0,Calm,Calm,-,N/A,,Partly Cloudy,0,2013-11-04 19:56:00
12:56 PM,43.0,26.1,51,30.14,10.0,NNW,5.8,-,N/A,,Overcast,340,2013-11-04 20:56:00
1:56 PM,43.0,25.0,49,30.16,10.0,NW,5.8,-,N/A,,Overcast,310,2013-11-04 21:56:00
2:56 PM,43.0,25.0,49,30.17,10.0,NW,6.9,-,N/A,,Overcast,320,2013-11-04 22:56:00
3:56 PM,43.0,25.0,49,30.17,10.0,Calm,Calm,-,N/A,,Overcast,0,2013-11-04 23:56:00
4:56 PM,41.0,27.0,57,30.19,10.0,SE,3.5,-,N/A,,Overcast,140,2013-11-05 00:56:00
5:56 PM,37.0,27.0,67,30.21,10.0,SE,5.8,-,N/A,,Clear,140,2013-11-05 01:56:00
6:56 PM,34.0,26.1,73,30.24,10.0,SSE,4.6,-,N/A,,Clear,160,2013-11-05 02:56:00
7:56 PM,36.0,27.0,70,30.23,10.0,Calm,Calm,-,N/A,,Clear,0,2013-11-05 03:56:00
8:56 PM,34.0,26.1,73,30.25,10.0,South,3.5,-,N/A,,Clear,170,2013-11-05 04:56:00
9:56 PM,33.1,26.1,75,30.25,10.0,Calm,Calm,-,N/A,,Mostly Cloudy,0,2013-11-05 05:56:00
10:56 PM,34.0,27.0,75,30.25,10.0,Calm,Calm,-,N/A,,Clear,0,2013-11-05 06:56:00
11:56 PM,30.9,26.1,82,30.25,10.0,SE,3.5,-,N/A,,Clear,130,2013-11-05 07:56:00